Time;durP1;ratioP1;P1;durP2;ratioP2;P2;SDS_P1;SDS_P2;PMS_P1;PMS_P2;Temp;Humidity;BMP_temperature;BMP_pressure;BME280_temperature;BME280_humidity;BME280_pressure;Samples;Min_cycle;Max_cycle;Signal;HPM_P1;HPM_P2
2023/12/08 00:00:19;;;;;;;31.20;15.50;;;;;;;;;;5098513;28;20463;-69
2023/12/08 00:03:04;;;;;;;29.08;15.10;;;;;;;;;;5100661;28;20117;-69
2023/12/08 00:05:50;;;;;;;30.30;15.90;;;;;;;;;;5099236;28;20106;-71
2023/12/08 00:08:37;;;;;;;32.08;16.38;;;;;;;;;;5095770;28;20024;-68
2023/12/08 00:11:22;;;;;;;30.63;15.40;;;;;;;;;;5082213;28;20020;-69
2023/12/08 00:14:08;;;;;;;31.23;16.27;;;;;;;;;;5106537;28;20024;-70
2023/12/08 00:16:54;;;;;;;32.65;16.08;;;;;;;;;;5119714;28;20012;-71
2023/12/08 00:19:40;;;;;;;34.58;16.25;;;;;;;;;;5103755;28;20027;-69
2023/12/08 00:22:27;;;;;;;31.30;15.65;;;;;;;;;;5116503;28;20039;-71
2023/12/08 00:25:12;;;;;;;31.65;15.77;;;;;;;;;;5116648;28;20045;-68
2023/12/08 00:27:58;;;;;;;31.42;16.25;;;;;;;;;;5117012;28;20030;-68
2023/12/08 00:30:44;;;;;;;34.95;16.02;;;;;;;;;;5116712;28;20019;-68
2023/12/08 00:33:29;;;;;;;30.35;15.23;;;;;;;;;;5117231;28;20020;-69
2023/12/08 00:36:17;;;;;;;30.55;15.35;;;;;;;;;;5116939;28;20475;-69
2023/12/08 00:39:02;;;;;;;27.58;13.98;;;;;;;;;;5101583;28;20028;-70
2023/12/08 00:41:48;;;;;;;25.42;14.23;;;;;;;;;;5116890;28;20518;-69
2023/12/08 00:44:34;;;;;;;27.05;13.98;;;;;;;;;;5116905;28;20351;-69
2023/12/08 00:47:19;;;;;;;25.48;14.95;;;;;;;;;;5116283;28;20045;-69
2023/12/08 00:50:07;;;;;;;28.83;15.23;;;;;;;;;;5101878;28;20046;-71
2023/12/08 00:52:52;;;;;;;30.70;15.43;;;;;;;;;;5116798;28;20027;-69
2023/12/08 00:55:38;;;;;;;28.05;14.50;;;;;;;;;;5115167;28;20077;-69
2023/12/08 00:58:23;;;;;;;28.50;14.88;;;;;;;;;;5115678;28;20015;-69
2023/12/08 01:01:09;;;;;;;26.27;14.32;;;;;;;;;;5116057;28;20363;-70
2023/12/08 01:03:55;;;;;;;28.05;15.02;;;;;;;;;;5116132;28;20084;-70
2023/12/08 01:06:40;;;;;;;27.83;15.27;;;;;;;;;;5116437;28;20028;-70
2023/12/08 01:09:26;;;;;;;30.02;15.23;;;;;;;;;;5115572;28;20027;-69
2023/12/08 01:12:12;;;;;;;28.42;14.75;;;;;;;;;;5115824;28;20023;-70
2023/12/08 01:14:57;;;;;;;30.10;15.55;;;;;;;;;;5116756;28;20019;-70
2023/12/08 01:17:43;;;;;;;29.17;14.57;;;;;;;;;;5113545;27;20019;-69
2023/12/08 01:20:28;;;;;;;29.90;15.50;;;;;;;;;;5101680;28;20024;-69
2023/12/08 01:23:14;;;;;;;28.48;14.60;;;;;;;;;;5115423;28;20011;-69
2023/12/08 01:26:00;;;;;;;30.52;15.30;;;;;;;;;;5115598;28;20011;-71
2023/12/08 01:28:45;;;;;;;26.58;13.98;;;;;;;;;;5115886;28;20464;-69
2023/12/08 01:31:31;;;;;;;29.00;15.68;;;;;;;;;;5115966;28;20026;-70
2023/12/08 01:34:17;;;;;;;25.92;14.20;;;;;;;;;;5099295;28;20020;-70
2023/12/08 01:37:03;;;;;;;27.00;13.88;;;;;;;;;;5115415;28;20428;-69
2023/12/08 01:39:48;;;;;;;25.88;13.88;;;;;;;;;;5100549;28;20030;-69
2023/12/08 01:42:34;;;;;;;28.23;14.38;;;;;;;;;;5114983;28;20049;-69
2023/12/08 01:45:20;;;;;;;29.02;14.82;;;;;;;;;;5115665;28;20050;-70
2023/12/08 01:48:06;;;;;;;27.40;13.85;;;;;;;;;;5101174;28;20030;-69
2023/12/08 01:50:51;;;;;;;28.88;14.75;;;;;;;;;;5115044;28;20101;-69
2023/12/08 01:53:37;;;;;;;27.83;14.80;;;;;;;;;;5099816;28;20031;-69
2023/12/08 01:56:23;;;;;;;29.42;14.18;;;;;;;;;;5115298;28;20444;-70
2023/12/08 01:59:08;;;;;;;26.60;14.25;;;;;;;;;;5115018;28;20077;-70
2023/12/08 02:01:54;;;;;;;28.67;13.50;;;;;;;;;;5116172;28;20096;-71
2023/12/08 02:04:44;;;;;;;25.60;13.07;;;;;;;;;;5115371;28;20027;-70
2023/12/08 02:07:31;;;;;;;27.88;13.23;;;;;;;;;;5114358;28;20092;-70
2023/12/08 02:10:17;;;;;;;22.90;12.10;;;;;;;;;;5098881;28;20077;-71
2023/12/08 02:13:02;;;;;;;23.75;12.65;;;;;;;;;;5099355;28;20096;-70
2023/12/08 02:15:51;;;;;;;25.15;13.43;;;;;;;;;;5114409;28;20051;-70
2023/12/08 02:18:38;;;;;;;26.90;13.07;;;;;;;;;;5099878;28;20352;-69
2023/12/08 02:21:24;;;;;;;22.42;11.98;;;;;;;;;;5115010;28;20084;-70
2023/12/08 02:24:10;;;;;;;23.35;12.40;;;;;;;;;;5114680;28;20099;-69
2023/12/08 02:26:55;;;;;;;25.25;13.32;;;;;;;;;;5115074;28;20078;-70
2023/12/08 02:29:41;;;;;;;25.88;13.27;;;;;;;;;;5115682;28;20016;-70
2023/12/08 02:32:37;;;;;;;25.90;13.30;;;;;;;;;;5119043;28;20389;-71
2023/12/08 02:35:23;;;;;;;26.92;13.43;;;;;;;;;;5118360;28;20038;-70
2023/12/08 02:38:10;;;;;;;20.75;12.18;;;;;;;;;;5120247;27;20020;-70
2023/12/08 02:40:56;;;;;;;27.65;13.80;;;;;;;;;;5103222;28;20140;-69
2023/12/08 02:43:42;;;;;;;27.20;14.32;;;;;;;;;;5117992;28;20089;-71
2023/12/08 02:46:27;;;;;;;25.40;13.50;;;;;;;;;;5103702;28;20016;-71
2023/12/08 02:49:13;;;;;;;28.27;14.35;;;;;;;;;;5118073;28;20052;-72
2023/12/08 02:51:58;;;;;;;29.55;14.75;;;;;;;;;;5104158;28;20083;-71
2023/12/08 02:54:44;;;;;;;26.77;14.13;;;;;;;;;;5117652;28;20016;-71
2023/12/08 02:57:29;;;;;;;28.75;14.63;;;;;;;;;;5118109;28;20091;-71
2023/12/08 03:00:16;;;;;;;28.35;14.25;;;;;;;;;;5117479;28;20030;-71
2023/12/08 03:03:02;;;;;;;27.98;14.43;;;;;;;;;;5116733;28;20051;-71
2023/12/08 03:05:47;;;;;;;25.80;13.80;;;;;;;;;;5118345;28;20016;-71
2023/12/08 03:08:33;;;;;;;26.50;13.75;;;;;;;;;;5117691;28;20015;-71
2023/12/08 03:11:18;;;;;;;27.95;14.93;;;;;;;;;;5116620;28;20459;-71
2023/12/08 03:14:04;;;;;;;25.58;13.25;;;;;;;;;;5118547;28;20038;-71
2023/12/08 03:16:50;;;;;;;29.65;15.18;;;;;;;;;;5102420;28;20027;-70
2023/12/08 03:19:35;;;;;;;28.27;14.20;;;;;;;;;;5118383;28;20080;-71
2023/12/08 03:22:21;;;;;;;28.77;14.52;;;;;;;;;;5117994;28;20039;-71
2023/12/08 03:25:06;;;;;;;29.30;14.23;;;;;;;;;;5118076;28;20030;-71
2023/12/08 03:27:52;;;;;;;29.35;14.13;;;;;;;;;;5117737;28;20019;-71
2023/12/08 03:30:38;;;;;;;26.13;14.43;;;;;;;;;;5117580;28;20026;-70
2023/12/08 03:33:23;;;;;;;29.42;14.38;;;;;;;;;;5118449;28;20390;-71
2023/12/08 03:36:09;;;;;;;30.48;14.77;;;;;;;;;;5102205;28;20122;-70
2023/12/08 03:38:54;;;;;;;27.75;13.70;;;;;;;;;;5118187;28;20094;-71
2023/12/08 03:41:40;;;;;;;28.52;14.25;;;;;;;;;;5115511;28;20305;-71
2023/12/08 03:44:25;;;;;;;28.52;14.73;;;;;;;;;;5117980;28;20359;-70
2023/12/08 03:47:11;;;;;;;30.30;14.73;;;;;;;;;;5116980;28;20431;-71
2023/12/08 03:49:57;;;;;;;27.25;15.07;;;;;;;;;;5103004;28;20051;-71
2023/12/08 03:52:42;;;;;;;29.00;14.38;;;;;;;;;;5117362;28;20115;-70
2023/12/08 03:55:28;;;;;;;30.83;15.07;;;;;;;;;;5103221;28;20442;-70
2023/12/08 03:58:13;;;;;;;45.53;20.85;;;;;;;;;;5117986;28;20024;-71
2023/12/08 04:00:59;;;;;;;38.17;17.23;;;;;;;;;;5116538;28;20023;-69
2023/12/08 04:03:45;;;;;;;31.48;16.13;;;;;;;;;;5117250;28;20321;-70
2023/12/08 04:06:30;;;;;;;30.92;15.52;;;;;;;;;;5117189;28;20027;-71
2023/12/08 04:09:16;;;;;;;32.25;15.60;;;;;;;;;;5117713;28;20321;-71
2023/12/08 04:12:01;;;;;;;34.25;16.98;;;;;;;;;;5117621;28;20038;-71
2023/12/08 04:14:47;;;;;;;32.42;16.30;;;;;;;;;;5116923;28;20451;-70
2023/12/08 04:17:33;;;;;;;30.95;16.23;;;;;;;;;;5116119;28;20031;-70
2023/12/08 04:20:19;;;;;;;31.88;16.42;;;;;;;;;;5100677;28;20107;-71
2023/12/08 04:23:05;;;;;;;32.58;15.60;;;;;;;;;;5101549;28;20019;-71
2023/12/08 04:25:50;;;;;;;33.50;16.40;;;;;;;;;;5117801;28;20027;-70
2023/12/08 04:28:36;;;;;;;30.58;15.73;;;;;;;;;;5116951;28;20357;-71
2023/12/08 04:31:22;;;;;;;30.50;15.85;;;;;;;;;;5116999;28;20030;-71
2023/12/08 04:34:07;;;;;;;31.92;16.38;;;;;;;;;;5101241;28;20024;-72
2023/12/08 04:36:53;;;;;;;28.63;14.25;;;;;;;;;;5116029;28;20020;-71
2023/12/08 04:39:39;;;;;;;29.10;15.35;;;;;;;;;;5121286;28;20027;-73
2023/12/08 04:42:25;;;;;;;30.35;14.82;;;;;;;;;;5102562;28;20030;-71
2023/12/08 04:45:13;;;;;;;32.17;15.55;;;;;;;;;;5116675;28;20079;-73
2023/12/08 04:47:59;;;;;;;30.55;15.05;;;;;;;;;;5116287;28;20031;-73
2023/12/08 04:50:45;;;;;;;29.40;15.32;;;;;;;;;;5116406;28;20081;-72
2023/12/08 04:53:30;;;;;;;27.90;14.65;;;;;;;;;;5115292;28;20443;-72
2023/12/08 04:56:19;;;;;;;24.52;13.90;;;;;;;;;;5116371;28;20019;-72
2023/12/08 04:59:05;;;;;;;25.27;13.68;;;;;;;;;;5116165;28;20020;-72
2023/12/08 05:01:51;;;;;;;28.60;14.60;;;;;;;;;;5102397;28;20439;-72
2023/12/08 05:04:37;;;;;;;26.85;14.13;;;;;;;;;;5100926;28;20436;-72
2023/12/08 05:07:22;;;;;;;28.95;14.88;;;;;;;;;;5116395;28;20356;-72
2023/12/08 05:10:08;;;;;;;30.67;15.35;;;;;;;;;;5099913;28;20027;-72
2023/12/08 05:12:54;;;;;;;42.45;22.95;;;;;;;;;;5114898;28;20452;-72
2023/12/08 05:15:39;;;;;;;37.17;18.35;;;;;;;;;;5115552;28;20035;-71
2023/12/08 05:18:25;;;;;;;36.40;18.30;;;;;;;;;;5101338;28;20024;-73
2023/12/08 05:21:11;;;;;;;35.78;17.13;;;;;;;;;;5114625;28;20091;-72
2023/12/08 05:23:56;;;;;;;32.53;16.83;;;;;;;;;;5101012;28;20350;-73
2023/12/08 05:26:42;;;;;;;35.85;18.33;;;;;;;;;;5116565;28;20405;-73
2023/12/08 05:29:28;;;;;;;33.22;17.67;;;;;;;;;;5114813;28;20144;-74
2023/12/08 05:32:13;;;;;;;37.55;18.83;;;;;;;;;;5115567;28;20026;-73
2023/12/08 05:35:00;;;;;;;43.15;19.65;;;;;;;;;;5116644;28;20028;-72
2023/12/08 05:37:45;;;;;;;35.92;18.65;;;;;;;;;;5116334;28;20020;-73
2023/12/08 05:40:31;;;;;;;32.33;17.27;;;;;;;;;;5114511;28;20068;-72
2023/12/08 05:43:16;;;;;;;34.70;18.25;;;;;;;;;;5115735;28;20110;-72
2023/12/08 05:46:02;;;;;;;40.05;19.65;;;;;;;;;;5114519;28;20412;-72
2023/12/08 05:48:48;;;;;;;39.85;19.95;;;;;;;;;;5115277;28;20119;-71
2023/12/08 05:51:33;;;;;;;40.17;18.70;;;;;;;;;;5114580;28;20054;-72
2023/12/08 05:54:19;;;;;;;39.72;20.33;;;;;;;;;;5099685;28;20034;-72
2023/12/08 05:57:04;;;;;;;40.85;20.42;;;;;;;;;;5115323;28;20504;-71
2023/12/08 05:59:50;;;;;;;38.33;19.27;;;;;;;;;;5114728;28;20024;-72
2023/12/08 06:02:36;;;;;;;35.35;18.30;;;;;;;;;;5116397;28;20022;-69
2023/12/08 06:05:21;;;;;;;30.80;15.90;;;;;;;;;;5100529;28;20019;-71
2023/12/08 06:08:07;;;;;;;33.25;17.15;;;;;;;;;;5100529;28;20023;-71
2023/12/08 06:10:52;;;;;;;34.47;17.60;;;;;;;;;;5100874;28;20027;-71
2023/12/08 06:13:38;;;;;;;37.28;19.08;;;;;;;;;;5115501;28;20027;-70
2023/12/08 06:16:25;;;;;;;34.22;17.70;;;;;;;;;;5115710;28;20051;-70
2023/12/08 06:19:11;;;;;;;29.08;14.98;;;;;;;;;;5114429;28;20328;-70
2023/12/08 06:21:56;;;;;;;27.38;14.23;;;;;;;;;;5098156;28;20023;-70
2023/12/08 06:24:42;;;;;;;36.90;16.50;;;;;;;;;;5115152;28;20074;-71
2023/12/08 06:27:27;;;;;;;31.05;15.23;;;;;;;;;;5115470;28;20031;-71
2023/12/08 06:30:13;;;;;;;29.98;15.00;;;;;;;;;;5115270;28;20027;-71
2023/12/08 06:32:59;;;;;;;28.90;14.65;;;;;;;;;;5114285;28;20432;-71
2023/12/08 06:35:44;;;;;;;29.33;14.88;;;;;;;;;;5114544;28;20020;-70
2023/12/08 06:38:33;;;;;;;34.28;16.33;;;;;;;;;;5114793;28;20032;-71
2023/12/08 06:41:19;;;;;;;33.42;16.38;;;;;;;;;;5098657;28;20084;-70
2023/12/08 06:44:04;;;;;;;33.33;16.92;;;;;;;;;;5099338;28;20022;-71
2023/12/08 06:46:50;;;;;;;29.92;15.15;;;;;;;;;;5117987;28;20431;-70
2023/12/08 06:49:36;;;;;;;30.83;15.35;;;;;;;;;;5100741;28;20066;-70
2023/12/08 06:52:21;;;;;;;29.60;15.30;;;;;;;;;;5099521;28;20040;-70
2023/12/08 06:55:07;;;;;;;26.27;14.73;;;;;;;;;;5115118;28;20019;-71
2023/12/08 06:57:53;;;;;;;26.42;13.80;;;;;;;;;;5115126;28;20031;-70
2023/12/08 07:00:38;;;;;;;29.98;14.13;;;;;;;;;;5113559;28;20046;-71
2023/12/08 07:03:24;;;;;;;25.02;14.00;;;;;;;;;;5114225;28;20030;-70
2023/12/08 07:06:09;;;;;;;24.13;13.23;;;;;;;;;;5113880;28;20442;-71
2023/12/08 07:08:55;;;;;;;25.90;12.80;;;;;;;;;;5114218;28;20038;-70
2023/12/08 07:11:41;;;;;;;25.25;12.65;;;;;;;;;;5114376;28;20094;-71
2023/12/08 07:14:26;;;;;;;23.17;12.30;;;;;;;;;;5099464;28;20114;-71
2023/12/08 07:17:12;;;;;;;27.90;14.32;;;;;;;;;;5101089;28;20016;-72
2023/12/08 07:19:58;;;;;;;23.92;13.70;;;;;;;;;;5105760;28;20019;-71
2023/12/08 07:22:43;;;;;;;24.90;13.63;;;;;;;;;;5117938;28;20099;-72
2023/12/08 07:25:31;;;;;;;25.73;13.27;;;;;;;;;;5102606;28;20061;-72
2023/12/08 07:28:17;;;;;;;23.27;12.10;;;;;;;;;;5101894;28;20447;-72
2023/12/08 07:31:03;;;;;;;21.13;10.95;;;;;;;;;;5118001;28;20019;-72
2023/12/08 07:33:49;;;;;;;20.63;11.45;;;;;;;;;;5117268;28;20020;-71
2023/12/08 07:36:34;;;;;;;21.30;11.85;;;;;;;;;;5116654;28;20027;-71
2023/12/08 07:39:20;;;;;;;30.38;13.68;;;;;;;;;;5118897;28;20020;-71
2023/12/08 07:42:05;;;;;;;34.38;15.52;;;;;;;;;;5120318;28;20156;-70
2023/12/08 07:44:52;;;;;;;22.92;12.88;;;;;;;;;;5116196;28;20019;-71
2023/12/08 07:47:38;;;;;;;26.83;13.52;;;;;;;;;;5117963;28;20355;-71
2023/12/08 07:50:24;;;;;;;21.23;12.10;;;;;;;;;;5117651;28;20047;-71
2023/12/08 07:53:10;;;;;;;19.38;11.77;;;;;;;;;;5116465;28;20469;-71
2023/12/08 07:55:55;;;;;;;28.25;14.48;;;;;;;;;;5116288;28;20019;-71
2023/12/08 07:58:41;;;;;;;24.27;13.90;;;;;;;;;;5116671;28;20407;-71
2023/12/08 08:01:26;;;;;;;24.92;12.82;;;;;;;;;;5116574;28;20020;-71
2023/12/08 08:04:12;;;;;;;22.50;12.45;;;;;;;;;;5116350;28;20111;-72
2023/12/08 08:06:58;;;;;;;23.13;12.70;;;;;;;;;;5102110;28;20316;-71
2023/12/08 08:09:43;;;;;;;22.70;13.32;;;;;;;;;;5117693;28;20029;-72
2023/12/08 08:12:32;;;;;;;24.33;12.38;;;;;;;;;;5115662;28;20045;-72
2023/12/08 08:15:17;;;;;;;22.13;12.68;;;;;;;;;;5100815;28;20402;-71
2023/12/08 08:18:03;;;;;;;19.67;11.38;;;;;;;;;;5116424;28;20020;-71
2023/12/08 08:20:49;;;;;;;18.08;10.70;;;;;;;;;;5116545;28;20020;-71
2023/12/08 08:23:34;;;;;;;23.63;12.90;;;;;;;;;;5115597;28;20447;-71
2023/12/08 08:26:20;;;;;;;25.30;13.20;;;;;;;;;;5117240;28;20428;-71
2023/12/08 08:29:06;;;;;;;25.05;13.13;;;;;;;;;;5116805;28;20023;-71
2023/12/08 08:31:52;;;;;;;26.10;13.63;;;;;;;;;;5116628;28;20039;-71
2023/12/08 08:34:38;;;;;;;25.80;14.40;;;;;;;;;;5115754;28;20034;-73
2023/12/08 08:37:24;;;;;;;27.45;14.27;;;;;;;;;;5118231;28;20012;-71
2023/12/08 08:40:09;;;;;;;29.15;14.32;;;;;;;;;;5115858;28;20107;-72
2023/12/08 08:42:55;;;;;;;23.08;12.57;;;;;;;;;;5101057;28;20027;-72
2023/12/08 08:45:41;;;;;;;23.50;12.98;;;;;;;;;;5115539;28;20020;-71
2023/12/08 08:48:27;;;;;;;26.98;14.50;;;;;;;;;;5114981;28;20016;-72
2023/12/08 08:51:14;;;;;;;25.77;14.48;;;;;;;;;;5100288;28;20341;-71
2023/12/08 08:54:00;;;;;;;20.83;11.90;;;;;;;;;;5116720;28;20530;-71
2023/12/08 08:56:47;;;;;;;25.10;13.02;;;;;;;;;;5115394;28;20051;-71
2023/12/08 08:59:32;;;;;;;23.52;12.30;;;;;;;;;;5115864;28;20060;-71
2023/12/08 09:02:18;;;;;;;22.48;12.13;;;;;;;;;;5101145;28;20282;-73
2023/12/08 09:05:07;;;;;;;23.67;12.77;;;;;;;;;;5115920;28;20080;-74
2023/12/08 09:07:53;;;;;;;22.83;11.95;;;;;;;;;;5116111;28;20098;-74
2023/12/08 09:10:39;;;;;;;22.33;11.30;;;;;;;;;;5115455;28;20045;-73
2023/12/08 09:13:25;;;;;;;23.83;12.88;;;;;;;;;;5116244;28;20030;-73
2023/12/08 09:16:10;;;;;;;21.60;11.27;;;;;;;;;;5116145;28;20024;-73
2023/12/08 09:18:56;;;;;;;21.75;11.65;;;;;;;;;;5105091;28;20012;-72
2023/12/08 09:21:41;;;;;;;20.15;11.55;;;;;;;;;;5123984;28;20016;-73
2023/12/08 09:24:27;;;;;;;21.15;11.30;;;;;;;;;;5116498;28;20405;-73
2023/12/08 09:27:12;;;;;;;24.05;12.88;;;;;;;;;;5115966;28;20028;-72
2023/12/08 09:29:58;;;;;;;21.52;12.25;;;;;;;;;;5099990;28;20463;-73
2023/12/08 09:32:44;;;;;;;24.33;13.20;;;;;;;;;;5099930;28;20031;-74
2023/12/08 09:35:29;;;;;;;26.63;14.00;;;;;;;;;;5101094;28;20020;-74
2023/12/08 09:38:15;;;;;;;26.55;14.32;;;;;;;;;;5101559;28;20108;-73
2023/12/08 09:41:01;;;;;;;22.90;12.65;;;;;;;;;;5115597;28;20015;-74
2023/12/08 09:44:02;;;;;;;24.98;13.48;;;;;;;;;;5114890;28;20084;-76
2023/12/08 09:46:54;;;;;;;24.98;12.68;;;;;;;;;;5113805;28;20102;-75
2023/12/08 09:49:44;;;;;;;25.02;13.50;;;;;;;;;;5114641;28;20030;-76
2023/12/08 09:52:31;;;;;;;25.52;14.27;;;;;;;;;;5115672;28;20054;-74
2023/12/08 09:55:17;;;;;;;23.88;13.30;;;;;;;;;;5114682;28;20039;-76
2023/12/08 09:58:03;;;;;;;24.58;12.95;;;;;;;;;;5116979;28;20018;-75
2023/12/08 10:00:49;;;;;;;23.75;13.52;;;;;;;;;;5098472;28;20454;-76
2023/12/08 10:03:34;;;;;;;27.88;14.57;;;;;;;;;;5115656;28;20406;-77
2023/12/08 10:06:20;;;;;;;24.10;13.73;;;;;;;;;;5115371;28;20015;-74
2023/12/08 10:09:06;;;;;;;25.73;13.13;;;;;;;;;;5099413;28;20347;-74
2023/12/08 10:11:52;;;;;;;22.08;12.70;;;;;;;;;;5115602;28;20398;-75
2023/12/08 10:14:56;;;;;;;25.67;13.32;;;;;;;;;;5114676;28;20031;-73
2023/12/08 10:17:47;;;;;;;22.63;13.07;;;;;;;;;;5114106;28;20030;-74
2023/12/08 10:20:33;;;;;;;25.13;13.43;;;;;;;;;;5099692;28;20016;-73
2023/12/08 10:23:22;;;;;;;22.70;12.50;;;;;;;;;;5099133;28;20020;-74
2023/12/08 10:26:08;;;;;;;24.02;12.98;;;;;;;;;;5099695;28;20027;-74
2023/12/08 10:28:55;;;;;;;25.88;13.98;;;;;;;;;;5099097;28;20019;-72
2023/12/08 10:31:41;;;;;;;25.35;13.93;;;;;;;;;;5114370;28;20016;-72
2023/12/08 10:34:27;;;;;;;23.20;13.07;;;;;;;;;;5114454;28;20023;-74
2023/12/08 10:37:13;;;;;;;24.48;12.73;;;;;;;;;;5100052;28;20022;-76
2023/12/08 10:40:00;;;;;;;25.02;12.95;;;;;;;;;;5100535;28;20019;-72
2023/12/08 10:42:47;;;;;;;22.67;13.23;;;;;;;;;;5115246;28;20035;-72
2023/12/08 10:45:33;;;;;;;26.50;13.35;;;;;;;;;;5099693;28;20106;-72
2023/12/08 10:48:22;;;;;;;30.00;14.40;;;;;;;;;;5114640;28;20477;-71
2023/12/08 10:51:13;;;;;;;26.98;14.15;;;;;;;;;;5116625;28;20116;-71
2023/12/08 10:53:59;;;;;;;26.45;14.00;;;;;;;;;;5118201;28;20095;-71
2023/12/08 10:56:45;;;;;;;27.00;13.55;;;;;;;;;;5117805;28;20168;-69
2023/12/08 10:59:32;;;;;;;26.00;13.43;;;;;;;;;;5101975;28;20088;-71
2023/12/08 11:02:23;;;;;;;26.92;15.45;;;;;;;;;;5118110;28;20100;-70
2023/12/08 11:05:11;;;;;;;24.98;13.80;;;;;;;;;;5118662;28;20045;-71
2023/12/08 11:07:58;;;;;;;23.35;13.48;;;;;;;;;;5117526;28;20035;-71
2023/12/08 11:10:46;;;;;;;27.25;14.07;;;;;;;;;;5102103;28;20019;-71
2023/12/08 11:13:37;;;;;;;27.80;14.70;;;;;;;;;;5117351;28;20440;-72
2023/12/08 11:16:27;;;;;;;25.38;14.00;;;;;;;;;;5103454;28;20360;-71
2023/12/08 11:19:14;;;;;;;26.98;12.85;;;;;;;;;;5118115;28;20030;-71
2023/12/08 11:21:59;;;;;;;28.95;14.07;;;;;;;;;;5119015;27;20008;-72
2023/12/08 11:24:45;;;;;;;28.02;15.05;;;;;;;;;;5103125;28;20053;-71
2023/12/08 11:27:36;;;;;;;25.17;13.50;;;;;;;;;;5117905;28;20103;-72
2023/12/08 11:30:26;;;;;;;24.30;12.75;;;;;;;;;;5117242;28;20020;-71
2023/12/08 11:33:14;;;;;;;22.67;12.75;;;;;;;;;;5118828;27;20027;-71
2023/12/08 11:36:07;;;;;;;22.38;12.65;;;;;;;;;;5101996;28;20012;-71
2023/12/08 11:38:53;;;;;;;23.85;12.82;;;;;;;;;;5102267;28;20023;-72
2023/12/08 11:41:39;;;;;;;23.67;12.55;;;;;;;;;;5116463;28;20054;-71
2023/12/08 11:44:25;;;;;;;24.75;12.85;;;;;;;;;;5118486;28;20030;-70
2023/12/08 11:47:12;;;;;;;21.83;12.57;;;;;;;;;;5117145;28;20024;-70
2023/12/08 11:49:57;;;;;;;22.92;12.85;;;;;;;;;;5117303;28;20042;-70
2023/12/08 11:52:43;;;;;;;23.23;13.13;;;;;;;;;;5101602;28;20459;-71
2023/12/08 11:55:29;;;;;;;24.08;12.38;;;;;;;;;;5117589;28;20393;-70
2023/12/08 11:58:17;;;;;;;22.80;12.95;;;;;;;;;;5095934;28;20020;-72
2023/12/08 12:01:02;;;;;;;24.85;13.07;;;;;;;;;;5093841;28;20036;-71
2023/12/08 12:03:54;;;;;;;21.63;11.95;;;;;;;;;;5095246;28;20016;-70
2023/12/08 12:06:42;;;;;;;24.75;12.88;;;;;;;;;;5081967;28;20016;-70
2023/12/08 12:09:28;;;;;;;23.52;13.52;;;;;;;;;;5095318;28;20034;-71
2023/12/08 12:12:18;;;;;;;26.80;13.88;;;;;;;;;;5095420;28;20028;-71
2023/12/08 12:15:04;;;;;;;23.88;12.68;;;;;;;;;;5095820;28;20090;-71
2023/12/08 12:17:50;;;;;;;23.63;12.23;;;;;;;;;;5094840;28;20047;-70
2023/12/08 12:20:36;;;;;;;23.60;13.10;;;;;;;;;;5094042;28;20077;-70
2023/12/08 12:23:22;;;;;;;21.90;12.63;;;;;;;;;;5081488;28;20138;-70
2023/12/08 12:26:13;;;;;;;23.20;12.57;;;;;;;;;;5095941;28;20020;-70
2023/12/08 12:28:58;;;;;;;21.83;11.88;;;;;;;;;;5094674;28;20024;-70
2023/12/08 12:31:46;;;;;;;28.25;12.65;;;;;;;;;;5094814;28;20031;-71
2023/12/08 12:34:31;;;;;;;27.10;13.32;;;;;;;;;;5094542;28;20452;-69
2023/12/08 12:37:17;;;;;;;25.20;13.43;;;;;;;;;;5079698;28;20124;-70
2023/12/08 12:40:07;;;;;;;22.48;12.93;;;;;;;;;;5095001;28;20016;-70
2023/12/08 12:42:53;;;;;;;22.80;12.45;;;;;;;;;;5095373;28;20097;-69
2023/12/08 12:45:39;;;;;;;25.80;12.82;;;;;;;;;;5094036;28;20024;-70
2023/12/08 12:48:25;;;;;;;23.13;13.20;;;;;;;;;;5094996;28;20452;-71
2023/12/08 12:51:14;;;;;;;28.27;14.23;;;;;;;;;;5093473;28;20060;-71
2023/12/08 12:54:00;;;;;;;23.30;13.07;;;;;;;;;;5075631;28;20020;-71
2023/12/08 12:56:52;;;;;;;26.23;13.68;;;;;;;;;;5076047;28;20024;-70
2023/12/08 12:59:50;;;;;;;26.42;13.15;;;;;;;;;;5059427;28;20099;-71
2023/12/08 13:02:36;;;;;;;22.60;12.15;;;;;;;;;;5074464;28;20031;-71
2023/12/08 13:05:22;;;;;;;25.60;12.73;;;;;;;;;;5075719;28;20334;-70
2023/12/08 13:08:07;;;;;;;25.30;13.20;;;;;;;;;;5074991;28;20465;-70
2023/12/08 13:10:53;;;;;;;22.55;12.68;;;;;;;;;;5074120;28;20062;-70
2023/12/08 13:13:39;;;;;;;24.40;12.60;;;;;;;;;;5060453;28;20126;-70
2023/12/08 13:16:24;;;;;;;24.23;13.13;;;;;;;;;;5075088;28;20440;-70
2023/12/08 13:19:10;;;;;;;26.17;14.27;;;;;;;;;;5075148;28;20040;-71
2023/12/08 13:21:55;;;;;;;29.73;13.05;;;;;;;;;;5074748;28;20094;-69
2023/12/08 13:24:41;;;;;;;22.75;12.45;;;;;;;;;;5073863;28;20016;-70
2023/12/08 13:27:27;;;;;;;22.65;12.95;;;;;;;;;;5075048;28;20025;-70
2023/12/08 13:30:13;;;;;;;22.92;12.63;;;;;;;;;;5074404;28;20433;-71
2023/12/08 13:32:58;;;;;;;25.52;13.43;;;;;;;;;;5059606;28;20424;-69
2023/12/08 13:35:44;;;;;;;23.85;13.48;;;;;;;;;;5075083;28;20078;-69
2023/12/08 13:38:29;;;;;;;25.85;13.70;;;;;;;;;;5075136;28;20028;-71
2023/12/08 13:41:15;;;;;;;28.73;13.77;;;;;;;;;;5073965;28;20020;-71
2023/12/08 13:44:01;;;;;;;28.38;14.15;;;;;;;;;;5074892;28;20382;-69
2023/12/08 13:46:46;;;;;;;27.20;14.25;;;;;;;;;;5073913;28;20067;-70
2023/12/08 13:49:32;;;;;;;24.70;13.65;;;;;;;;;;5074953;28;20017;-70
2023/12/08 13:52:18;;;;;;;24.23;13.10;;;;;;;;;;5083073;28;20113;-70
2023/12/08 13:55:05;;;;;;;24.98;13.45;;;;;;;;;;5094055;28;20040;-70
2023/12/08 13:57:51;;;;;;;28.27;14.48;;;;;;;;;;5093920;28;20360;-70
2023/12/08 14:00:36;;;;;;;29.02;15.30;;;;;;;;;;5093048;28;20031;-68
2023/12/08 14:03:22;;;;;;;25.83;14.38;;;;;;;;;;5093901;28;20019;-69
2023/12/08 14:06:07;;;;;;;30.60;15.07;;;;;;;;;;5092856;28;20355;-70
2023/12/08 14:08:53;;;;;;;28.27;15.80;;;;;;;;;;5092481;28;20054;-70
2023/12/08 14:11:38;;;;;;;39.78;21.35;;;;;;;;;;5093248;28;20363;-71
2023/12/08 14:14:24;;;;;;;29.08;15.85;;;;;;;;;;5092888;28;20020;-70
2023/12/08 14:17:10;;;;;;;31.67;15.68;;;;;;;;;;5078687;28;20020;-70
2023/12/08 14:19:55;;;;;;;30.83;16.88;;;;;;;;;;5078764;28;20016;-70
2023/12/08 14:22:41;;;;;;;31.38;16.10;;;;;;;;;;5092557;28;20369;-69
2023/12/08 14:25:26;;;;;;;29.42;16.13;;;;;;;;;;5094394;28;20488;-70
2023/12/08 14:28:12;;;;;;;32.05;16.15;;;;;;;;;;5097618;28;20032;-70
2023/12/08 14:30:58;;;;;;;33.05;17.25;;;;;;;;;;5096759;28;20119;-70
2023/12/08 14:33:44;;;;;;;32.70;16.05;;;;;;;;;;5096814;28;20119;-70
2023/12/08 14:36:30;;;;;;;32.30;15.98;;;;;;;;;;5096473;28;20110;-70
2023/12/08 14:39:17;;;;;;;30.75;16.52;;;;;;;;;;5096535;28;20456;-70
2023/12/08 14:42:02;;;;;;;33.40;17.52;;;;;;;;;;5098010;28;20020;-69
2023/12/08 14:44:48;;;;;;;33.70;17.35;;;;;;;;;;5082819;28;20020;-70
2023/12/08 14:47:33;;;;;;;29.73;16.13;;;;;;;;;;5096709;28;20074;-70
2023/12/08 14:50:19;;;;;;;33.85;16.52;;;;;;;;;;5097163;28;20533;-69
2023/12/08 14:53:04;;;;;;;29.40;16.08;;;;;;;;;;5095816;28;20050;-70
2023/12/08 14:55:50;;;;;;;39.50;18.00;;;;;;;;;;5097027;28;20032;-70
2023/12/08 14:58:36;;;;;;;32.67;17.85;;;;;;;;;;5097337;28;20095;-70
2023/12/08 15:01:21;;;;;;;32.97;17.95;;;;;;;;;;5095350;28;20016;-70
2023/12/08 15:04:07;;;;;;;33.22;16.63;;;;;;;;;;5096685;28;20024;-69
2023/12/08 15:06:53;;;;;;;34.85;17.52;;;;;;;;;;5097209;28;20028;-71
2023/12/08 15:09:39;;;;;;;29.27;16.73;;;;;;;;;;5095281;28;20500;-69
2023/12/08 15:12:24;;;;;;;34.22;17.15;;;;;;;;;;5096785;28;20037;-69
2023/12/08 15:15:10;;;;;;;32.88;18.13;;;;;;;;;;5096000;28;20104;-69
2023/12/08 15:17:56;;;;;;;34.75;18.60;;;;;;;;;;5096646;28;20016;-70
2023/12/08 15:20:49;;;;;;;33.78;17.55;;;;;;;;;;5095570;28;20024;-69
2023/12/08 15:23:36;;;;;;;36.28;18.52;;;;;;;;;;5096950;28;20089;-70
2023/12/08 15:26:22;;;;;;;32.97;17.88;;;;;;;;;;5096109;28;20024;-73
2023/12/08 15:29:07;;;;;;;51.75;24.02;;;;;;;;;;5097034;28;20035;-71
2023/12/08 15:31:53;;;;;;;40.90;19.85;;;;;;;;;;5101312;28;20020;-74
2023/12/08 15:34:39;;;;;;;44.25;21.30;;;;;;;;;;5101757;28;20027;-72
2023/12/08 15:37:24;;;;;;;42.63;20.23;;;;;;;;;;5100550;28;20027;-73
2023/12/08 15:40:10;;;;;;;36.45;18.42;;;;;;;;;;5080751;28;20095;-70
2023/12/08 15:42:56;;;;;;;34.05;17.88;;;;;;;;;;5096304;28;20437;-70
2023/12/08 15:45:41;;;;;;;35.58;16.70;;;;;;;;;;5095651;28;20024;-69
2023/12/08 15:48:27;;;;;;;34.20;17.13;;;;;;;;;;5095088;28;20401;-71
2023/12/08 15:51:13;;;;;;;32.40;16.17;;;;;;;;;;5095602;28;20480;-69
2023/12/08 15:53:59;;;;;;;34.08;17.88;;;;;;;;;;5076762;28;20365;-68
2023/12/08 15:56:44;;;;;;;34.28;17.90;;;;;;;;;;5075613;28;20042;-68
2023/12/08 15:59:30;;;;;;;31.17;16.77;;;;;;;;;;5075864;28;20059;-70
2023/12/08 16:02:15;;;;;;;36.13;18.40;;;;;;;;;;5075296;28;20042;-69
2023/12/08 16:05:02;;;;;;;35.20;17.75;;;;;;;;;;5075219;28;20021;-69